sensor_id;sensor_type;location;lat;lon;timestamp;P1;durP1;ratioP1;P2;durP2;ratioP2
78856;SDS011;68207;50.078;19.936;2023-08-31T15:04:14;4.80;;;2.50;;
78856;SDS011;68207;50.078;19.936;2023-08-31T15:06:40;3.70;;;2.70;;
78856;SDS011;68207;50.078;19.936;2023-08-31T15:09:05;3.50;;;2.50;;
78856;SDS011;68207;50.078;19.936;2023-08-31T15:13:53;3.30;;;2.50;;
78856;SDS011;68207;50.078;19.936;2023-08-31T15:16:18;3.40;;;2.40;;
78856;SDS011;68207;50.078;19.936;2023-08-31T15:21:22;3.70;;;2.40;;
78856;SDS011;68207;50.078;19.936;2023-08-31T15:25:47;6.20;;;2.90;;
78856;SDS011;68207;50.078;19.936;2023-08-31T15:28:13;4.90;;;2.50;;
78856;SDS011;68207;50.078;19.936;2023-08-31T15:30:38;4.70;;;2.90;;
78856;SDS011;68207;50.078;19.936;2023-08-31T15:33:04;4.70;;;2.50;;
78856;SDS011;68207;50.078;19.936;2023-08-31T15:35:47;6.30;;;3.00;;
78856;SDS011;68207;50.078;19.936;2023-08-31T15:45:50;3.60;;;2.90;;
78856;SDS011;68207;50.078;19.936;2023-08-31T16:03:21;4.30;;;3.00;;
78856;SDS011;68207;50.078;19.936;2023-08-31T16:08:31;3.00;;;2.30;;
78856;SDS011;68207;50.078;19.936;2023-08-31T16:10:57;7.10;;;2.40;;
78856;SDS011;68207;50.078;19.936;2023-08-31T16:15:17;2.60;;;1.90;;
78856;SDS011;68207;50.078;19.936;2023-08-31T16:19:25;3.10;;;2.30;;
78856;SDS011;68207;50.078;19.936;2023-08-31T16:24:08;5.50;;;2.80;;
78856;SDS011;68207;50.078;19.936;2023-08-31T16:26:33;3.80;;;2.90;;
78856;SDS011;68207;50.078;19.936;2023-08-31T16:28:59;3.50;;;2.70;;
78856;SDS011;68207;50.078;19.936;2023-08-31T16:31:24;4.30;;;2.80;;
78856;SDS011;68207;50.078;19.936;2023-08-31T16:33:50;5.20;;;3.40;;
78856;SDS011;68207;50.078;19.936;2023-08-31T16:36:15;4.10;;;2.80;;
78856;SDS011;68207;50.078;19.936;2023-08-31T16:38:40;5.10;;;2.90;;
78856;SDS011;68207;50.078;19.936;2023-08-31T16:41:05;3.90;;;2.60;;
78856;SDS011;68207;50.078;19.936;2023-08-31T16:43:31;4.50;;;3.00;;
78856;SDS011;68207;50.078;19.936;2023-08-31T16:46:03;3.40;;;2.70;;
78856;SDS011;68207;50.078;19.936;2023-08-31T16:48:28;4.70;;;2.60;;
78856;SDS011;68207;50.078;19.936;2023-08-31T16:50:54;4.30;;;2.80;;
78856;SDS011;68207;50.078;19.936;2023-08-31T16:53:19;4.50;;;2.50;;
78856;SDS011;68207;50.078;19.936;2023-08-31T16:55:44;5.40;;;2.80;;
78856;SDS011;68207;50.078;19.936;2023-08-31T16:58:09;4.80;;;3.00;;
78856;SDS011;68207;50.078;19.936;2023-08-31T17:00:35;3.60;;;2.80;;
78856;SDS011;68207;50.078;19.936;2023-08-31T17:03:00;4.00;;;2.90;;
78856;SDS011;68207;50.078;19.936;2023-08-31T17:05:28;3.40;;;2.50;;
78856;SDS011;68207;50.078;19.936;2023-08-31T17:07:54;6.70;;;2.90;;
78856;SDS011;68207;50.078;19.936;2023-08-31T17:10:19;2.90;;;2.40;;
78856;SDS011;68207;50.078;19.936;2023-08-31T17:12:45;4.20;;;2.40;;
78856;SDS011;68207;50.078;19.936;2023-08-31T17:15:10;3.90;;;2.40;;
78856;SDS011;68207;50.078;19.936;2023-08-31T17:17:35;3.90;;;2.50;;
78856;SDS011;68207;50.078;19.936;2023-08-31T17:20:01;3.10;;;2.40;;
78856;SDS011;68207;50.078;19.936;2023-08-31T17:22:30;6.80;;;3.10;;
78856;SDS011;68207;50.078;19.936;2023-08-31T17:24:59;3.80;;;2.50;;
78856;SDS011;68207;50.078;19.936;2023-08-31T17:27:25;3.50;;;2.30;;
78856;SDS011;68207;50.078;19.936;2023-08-31T17:29:50;3.60;;;2.40;;
78856;SDS011;68207;50.078;19.936;2023-08-31T17:32:16;5.20;;;2.80;;
78856;SDS011;68207;50.078;19.936;2023-08-31T17:34:41;4.50;;;2.80;;
78856;SDS011;68207;50.078;19.936;2023-08-31T17:37:07;4.40;;;2.70;;
78856;SDS011;68207;50.078;19.936;2023-08-31T17:39:32;3.90;;;2.30;;
78856;SDS011;68207;50.078;19.936;2023-08-31T17:41:57;4.00;;;2.40;;
78856;SDS011;68207;50.078;19.936;2023-08-31T17:44:23;4.00;;;2.50;;
78856;SDS011;68207;50.078;19.936;2023-08-31T17:46:50;4.20;;;2.80;;
78856;SDS011;68207;50.078;19.936;2023-08-31T17:49:16;4.60;;;2.60;;
78856;SDS011;68207;50.078;19.936;2023-08-31T17:51:41;3.80;;;2.40;;
78856;SDS011;68207;50.078;19.936;2023-08-31T17:54:06;4.00;;;2.70;;
78856;SDS011;68207;50.078;19.936;2023-08-31T17:56:32;3.60;;;2.50;;
78856;SDS011;68207;50.078;19.936;2023-08-31T17:58:57;5.60;;;3.00;;
78856;SDS011;68207;50.078;19.936;2023-08-31T18:01:23;4.70;;;3.00;;
78856;SDS011;68207;50.078;19.936;2023-08-31T18:03:48;4.00;;;2.90;;
78856;SDS011;68207;50.078;19.936;2023-08-31T18:11:11;5.70;;;3.60;;
78856;SDS011;68207;50.078;19.936;2023-08-31T18:13:37;4.30;;;3.20;;
78856;SDS011;68207;50.078;19.936;2023-08-31T18:16:02;6.40;;;3.40;;
78856;SDS011;68207;50.078;19.936;2023-08-31T18:18:28;4.00;;;3.50;;
78856;SDS011;68207;50.078;19.936;2023-08-31T18:20:57;5.80;;;3.60;;
78856;SDS011;68207;50.078;19.936;2023-08-31T18:23:22;6.00;;;3.20;;
78856;SDS011;68207;50.078;19.936;2023-08-31T18:25:48;7.20;;;4.50;;
78856;SDS011;68207;50.078;19.936;2023-08-31T18:28:13;4.20;;;3.50;;
78856;SDS011;68207;50.078;19.936;2023-08-31T18:30:38;5.60;;;3.40;;
78856;SDS011;68207;50.078;19.936;2023-08-31T18:33:04;4.00;;;3.40;;
78856;SDS011;68207;50.078;19.936;2023-08-31T18:35:29;3.80;;;3.40;;
78856;SDS011;68207;50.078;19.936;2023-08-31T18:37:54;6.50;;;5.00;;
78856;SDS011;68207;50.078;19.936;2023-08-31T18:40:19;6.90;;;4.60;;
78856;SDS011;68207;50.078;19.936;2023-08-31T18:42:45;6.80;;;4.60;;
78856;SDS011;68207;50.078;19.936;2023-08-31T18:45:10;6.50;;;4.20;;
78856;SDS011;68207;50.078;19.936;2023-08-31T18:47:38;8.50;;;4.90;;
78856;SDS011;68207;50.078;19.936;2023-08-31T18:50:04;6.40;;;4.10;;
78856;SDS011;68207;50.078;19.936;2023-08-31T18:52:29;4.90;;;4.30;;
78856;SDS011;68207;50.078;19.936;2023-08-31T18:54:55;7.10;;;4.50;;
78856;SDS011;68207;50.078;19.936;2023-08-31T18:57:21;5.30;;;4.20;;
78856;SDS011;68207;50.078;19.936;2023-08-31T18:59:47;6.60;;;4.30;;
78856;SDS011;68207;50.078;19.936;2023-08-31T19:02:12;5.70;;;4.40;;
78856;SDS011;68207;50.078;19.936;2023-08-31T19:04:38;6.10;;;4.30;;
78856;SDS011;68207;50.078;19.936;2023-08-31T19:07:03;7.60;;;4.70;;
78856;SDS011;68207;50.078;19.936;2023-08-31T19:09:28;5.30;;;4.10;;
78856;SDS011;68207;50.078;19.936;2023-08-31T19:11:54;6.50;;;4.00;;
78856;SDS011;68207;50.078;19.936;2023-08-31T19:14:20;8.00;;;4.10;;
78856;SDS011;68207;50.078;19.936;2023-08-31T19:16:46;4.80;;;3.50;;
78856;SDS011;68207;50.078;19.936;2023-08-31T19:19:12;6.10;;;4.30;;
78856;SDS011;68207;50.078;19.936;2023-08-31T19:21:37;5.50;;;4.00;;
78856;SDS011;68207;50.078;19.936;2023-08-31T19:24:03;5.70;;;4.00;;
78856;SDS011;68207;50.078;19.936;2023-08-31T19:26:28;7.00;;;3.80;;
78856;SDS011;68207;50.078;19.936;2023-08-31T19:28:54;5.00;;;3.60;;
78856;SDS011;68207;50.078;19.936;2023-08-31T19:31:19;5.30;;;3.30;;
78856;SDS011;68207;50.078;19.936;2023-08-31T19:33:45;5.10;;;3.30;;
78856;SDS011;68207;50.078;19.936;2023-08-31T19:36:11;4.30;;;3.40;;
78856;SDS011;68207;50.078;19.936;2023-08-31T19:38:37;5.30;;;3.30;;
78856;SDS011;68207;50.078;19.936;2023-08-31T19:41:03;4.40;;;3.20;;
78856;SDS011;68207;50.078;19.936;2023-08-31T19:43:29;6.70;;;5.10;;
78856;SDS011;68207;50.078;19.936;2023-08-31T19:45:54;5.60;;;3.50;;
78856;SDS011;68207;50.078;19.936;2023-08-31T19:48:19;4.70;;;3.80;;
78856;SDS011;68207;50.078;19.936;2023-08-31T19:50:44;5.60;;;3.90;;
78856;SDS011;68207;50.078;19.936;2023-08-31T19:53:10;6.00;;;3.50;;
78856;SDS011;68207;50.078;19.936;2023-08-31T19:55:35;4.70;;;3.40;;
78856;SDS011;68207;50.078;19.936;2023-08-31T19:58:01;7.10;;;4.90;;
78856;SDS011;68207;50.078;19.936;2023-08-31T20:00:27;6.70;;;3.70;;
78856;SDS011;68207;50.078;19.936;2023-08-31T20:02:53;5.30;;;3.70;;
78856;SDS011;68207;50.078;19.936;2023-08-31T20:05:26;4.90;;;3.80;;
78856;SDS011;68207;50.078;19.936;2023-08-31T20:07:52;6.00;;;4.10;;
78856;SDS011;68207;50.078;19.936;2023-08-31T20:10:18;7.10;;;3.70;;
78856;SDS011;68207;50.078;19.936;2023-08-31T20:12:44;6.50;;;3.60;;
78856;SDS011;68207;50.078;19.936;2023-08-31T20:15:09;5.30;;;3.90;;
78856;SDS011;68207;50.078;19.936;2023-08-31T20:17:35;6.30;;;3.60;;
78856;SDS011;68207;50.078;19.936;2023-08-31T20:20:01;5.50;;;3.90;;
78856;SDS011;68207;50.078;19.936;2023-08-31T20:22:28;5.20;;;3.90;;
78856;SDS011;68207;50.078;19.936;2023-08-31T20:24:53;4.90;;;3.60;;
78856;SDS011;68207;50.078;19.936;2023-08-31T20:27:19;6.20;;;3.70;;
78856;SDS011;68207;50.078;19.936;2023-08-31T20:29:44;6.40;;;3.70;;
78856;SDS011;68207;50.078;19.936;2023-08-31T20:32:09;4.90;;;3.80;;
78856;SDS011;68207;50.078;19.936;2023-08-31T20:34:35;6.10;;;3.80;;
78856;SDS011;68207;50.078;19.936;2023-08-31T20:37:03;4.60;;;3.40;;
78856;SDS011;68207;50.078;19.936;2023-08-31T20:39:35;6.40;;;3.80;;
78856;SDS011;68207;50.078;19.936;2023-08-31T20:42:03;4.90;;;4.00;;
78856;SDS011;68207;50.078;19.936;2023-08-31T20:44:30;5.10;;;3.60;;
78856;SDS011;68207;50.078;19.936;2023-08-31T20:46:56;5.80;;;4.00;;
78856;SDS011;68207;50.078;19.936;2023-08-31T20:49:22;5.30;;;3.50;;
78856;SDS011;68207;50.078;19.936;2023-08-31T20:51:48;4.80;;;3.60;;
78856;SDS011;68207;50.078;19.936;2023-08-31T20:54:13;6.50;;;3.70;;
78856;SDS011;68207;50.078;19.936;2023-08-31T20:56:39;4.50;;;3.60;;
78856;SDS011;68207;50.078;19.936;2023-08-31T20:59:05;5.90;;;4.10;;
78856;SDS011;68207;50.078;19.936;2023-08-31T21:01:30;8.40;;;3.90;;
78856;SDS011;68207;50.078;19.936;2023-08-31T21:03:59;6.20;;;4.10;;
78856;SDS011;68207;50.078;19.936;2023-08-31T21:06:26;5.30;;;3.70;;
78856;SDS011;68207;50.078;19.936;2023-08-31T21:08:52;6.10;;;4.30;;
78856;SDS011;68207;50.078;19.936;2023-08-31T21:11:24;5.80;;;3.80;;
78856;SDS011;68207;50.078;19.936;2023-08-31T21:13:50;7.30;;;4.40;;
78856;SDS011;68207;50.078;19.936;2023-08-31T21:16:16;5.50;;;4.00;;
78856;SDS011;68207;50.078;19.936;2023-08-31T21:18:42;6.50;;;4.10;;
78856;SDS011;68207;50.078;19.936;2023-08-31T21:21:08;5.90;;;4.30;;
78856;SDS011;68207;50.078;19.936;2023-08-31T21:23:34;6.10;;;4.10;;
78856;SDS011;68207;50.078;19.936;2023-08-31T21:26:00;6.40;;;4.30;;
78856;SDS011;68207;50.078;19.936;2023-08-31T21:30:51;6.80;;;4.90;;
78856;SDS011;68207;50.078;19.936;2023-08-31T21:33:17;10.80;;;7.50;;
78856;SDS011;68207;50.078;19.936;2023-08-31T21:35:42;7.00;;;5.50;;
78856;SDS011;68207;50.078;19.936;2023-08-31T21:38:11;6.60;;;4.60;;
78856;SDS011;68207;50.078;19.936;2023-08-31T21:40:38;5.90;;;4.30;;
78856;SDS011;68207;50.078;19.936;2023-08-31T21:43:04;5.80;;;4.50;;
78856;SDS011;68207;50.078;19.936;2023-08-31T21:45:30;7.80;;;4.80;;
78856;SDS011;68207;50.078;19.936;2023-08-31T21:47:57;6.70;;;4.40;;
78856;SDS011;68207;50.078;19.936;2023-08-31T21:50:26;14.60;;;8.70;;
78856;SDS011;68207;50.078;19.936;2023-08-31T21:53:02;9.70;;;6.10;;
78856;SDS011;68207;50.078;19.936;2023-08-31T21:55:28;7.50;;;5.30;;
78856;SDS011;68207;50.078;19.936;2023-08-31T21:57:54;8.80;;;5.30;;
78856;SDS011;68207;50.078;19.936;2023-08-31T22:00:19;8.00;;;5.00;;
78856;SDS011;68207;50.078;19.936;2023-08-31T22:02:46;6.90;;;4.50;;
78856;SDS011;68207;50.078;19.936;2023-08-31T22:05:14;7.00;;;4.70;;
78856;SDS011;68207;50.078;19.936;2023-08-31T22:07:41;5.70;;;4.70;;
78856;SDS011;68207;50.078;19.936;2023-08-31T22:10:07;6.30;;;5.00;;
78856;SDS011;68207;50.078;19.936;2023-08-31T22:12:33;8.20;;;4.50;;
78856;SDS011;68207;50.078;19.936;2023-08-31T22:15:01;5.70;;;4.80;;
78856;SDS011;68207;50.078;19.936;2023-08-31T22:17:32;9.60;;;4.90;;
78856;SDS011;68207;50.078;19.936;2023-08-31T22:19:57;7.00;;;5.50;;
78856;SDS011;68207;50.078;19.936;2023-08-31T22:24:48;7.70;;;5.20;;
78856;SDS011;68207;50.078;19.936;2023-08-31T22:27:14;5.90;;;4.60;;
78856;SDS011;68207;50.078;19.936;2023-08-31T22:29:41;8.70;;;4.70;;
78856;SDS011;68207;50.078;19.936;2023-08-31T22:32:07;8.00;;;4.80;;
78856;SDS011;68207;50.078;19.936;2023-08-31T22:34:32;7.30;;;5.30;;
78856;SDS011;68207;50.078;19.936;2023-08-31T22:36:57;6.30;;;5.00;;
78856;SDS011;68207;50.078;19.936;2023-08-31T22:39:22;9.10;;;4.70;;
78856;SDS011;68207;50.078;19.936;2023-08-31T22:41:48;6.10;;;4.40;;
78856;SDS011;68207;50.078;19.936;2023-08-31T22:44:13;6.20;;;4.80;;
78856;SDS011;68207;50.078;19.936;2023-08-31T22:46:39;8.50;;;4.70;;
78856;SDS011;68207;50.078;19.936;2023-08-31T22:49:04;7.30;;;4.30;;
78856;SDS011;68207;50.078;19.936;2023-08-31T22:51:30;6.70;;;4.50;;
78856;SDS011;68207;50.078;19.936;2023-08-31T22:53:55;6.60;;;4.50;;
78856;SDS011;68207;50.078;19.936;2023-08-31T22:56:21;7.40;;;4.40;;
78856;SDS011;68207;50.078;19.936;2023-08-31T22:58:46;7.90;;;5.10;;
78856;SDS011;68207;50.078;19.936;2023-08-31T23:01:11;8.50;;;4.50;;
78856;SDS011;68207;50.078;19.936;2023-08-31T23:03:37;6.70;;;5.00;;
78856;SDS011;68207;50.078;19.936;2023-08-31T23:06:02;5.90;;;4.50;;
78856;SDS011;68207;50.078;19.936;2023-08-31T23:08:28;6.50;;;4.40;;
78856;SDS011;68207;50.078;19.936;2023-08-31T23:10:57;9.90;;;4.40;;
78856;SDS011;68207;50.078;19.936;2023-08-31T23:13:26;6.50;;;4.70;;
78856;SDS011;68207;50.078;19.936;2023-08-31T23:15:51;7.10;;;5.00;;
78856;SDS011;68207;50.078;19.936;2023-08-31T23:18:17;6.10;;;4.70;;
78856;SDS011;68207;50.078;19.936;2023-08-31T23:20:42;8.10;;;4.70;;
78856;SDS011;68207;50.078;19.936;2023-08-31T23:23:08;6.20;;;4.70;;
78856;SDS011;68207;50.078;19.936;2023-08-31T23:25:33;6.20;;;4.30;;
78856;SDS011;68207;50.078;19.936;2023-08-31T23:27:58;6.80;;;4.60;;
78856;SDS011;68207;50.078;19.936;2023-08-31T23:30:24;6.10;;;4.70;;
78856;SDS011;68207;50.078;19.936;2023-08-31T23:32:50;8.00;;;5.00;;
78856;SDS011;68207;50.078;19.936;2023-08-31T23:35:15;11.00;;;5.10;;
78856;SDS011;68207;50.078;19.936;2023-08-31T23:37:43;6.80;;;5.00;;
78856;SDS011;68207;50.078;19.936;2023-08-31T23:40:09;7.30;;;4.50;;
78856;SDS011;68207;50.078;19.936;2023-08-31T23:42:36;7.40;;;4.70;;
78856;SDS011;68207;50.078;19.936;2023-08-31T23:45:05;5.40;;;4.30;;
78856;SDS011;68207;50.078;19.936;2023-08-31T23:47:31;6.00;;;4.30;;
78856;SDS011;68207;50.078;19.936;2023-08-31T23:49:57;7.00;;;4.50;;
78856;SDS011;68207;50.078;19.936;2023-08-31T23:52:22;6.20;;;4.70;;
78856;SDS011;68207;50.078;19.936;2023-08-31T23:54:50;7.70;;;4.60;;
78856;SDS011;68207;50.078;19.936;2023-08-31T23:57:15;9.40;;;4.60;;
78856;SDS011;68207;50.078;19.936;2023-08-31T23:59:40;8.50;;;5.20;;
